Terminal Aerodrome Forecast
Issued by NWS Sioux Falls, SD

Home | Current Version | Previous Version | Text Only | Print | Product List | Glossary Off
Versions: 1 2 3 4 5 6 7 8 9 10 11 12

000
FTUS43 KFSD 252322
TAFSUX
TAF
KSUX 252322Z 2600/2624 30010KT P6SM FEW250
     FM260200 29006KT P6SM SKC
     FM261500 30010KT P6SM SKC
     FM261800 30016G23KT P6SM SKC=

USA.gov is the U.S. government's official web portal to all federal, state and local government web resources and services.